sensor_id;sensor_type;location;lat;lon;timestamp;temperature;humidity
5134;DHT22;2585;48.696;10.066;2023-01-19T00:00:50;-3.20;78.50
5134;DHT22;2585;48.696;10.066;2023-01-19T00:03:17;-3.30;79.00
5134;DHT22;2585;48.696;10.066;2023-01-19T00:05:44;-3.40;79.00
5134;DHT22;2585;48.696;10.066;2023-01-19T00:08:12;-3.40;80.90
5134;DHT22;2585;48.696;10.066;2023-01-19T00:10:45;-3.50;81.50
5134;DHT22;2585;48.696;10.066;2023-01-19T00:13:13;-3.60;80.80
5134;DHT22;2585;48.696;10.066;2023-01-19T00:15:40;-3.60;81.30
5134;DHT22;2585;48.696;10.066;2023-01-19T00:18:07;-3.70;80.80
5134;DHT22;2585;48.696;10.066;2023-01-19T00:20:36;-3.70;81.80
5134;DHT22;2585;48.696;10.066;2023-01-19T00:23:03;-3.80;82.80
5134;DHT22;2585;48.696;10.066;2023-01-19T00:25:33;-3.80;83.30
5134;DHT22;2585;48.696;10.066;2023-01-19T00:27:59;-3.90;83.40
5134;DHT22;2585;48.696;10.066;2023-01-19T00:30:27;-3.90;84.90
5134;DHT22;2585;48.696;10.066;2023-01-19T00:32:55;-4.00;85.00
5134;DHT22;2585;48.696;10.066;2023-01-19T00:35:21;-4.00;86.10
5134;DHT22;2585;48.696;10.066;2023-01-19T00:37:48;-4.10;86.50
5134;DHT22;2585;48.696;10.066;2023-01-19T00:40:16;-4.10;86.90
5134;DHT22;2585;48.696;10.066;2023-01-19T00:42:43;-4.20;87.30
5134;DHT22;2585;48.696;10.066;2023-01-19T00:45:15;-4.20;87.00
5134;DHT22;2585;48.696;10.066;2023-01-19T00:47:42;-4.30;86.20
5134;DHT22;2585;48.696;10.066;2023-01-19T00:50:10;-4.40;86.50
5134;DHT22;2585;48.696;10.066;2023-01-19T00:52:41;-4.40;87.30
5134;DHT22;2585;48.696;10.066;2023-01-19T00:55:09;-4.40;88.70
5134;DHT22;2585;48.696;10.066;2023-01-19T00:57:37;-4.40;89.30
5134;DHT22;2585;48.696;10.066;2023-01-19T01:00:06;-4.50;89.50
5134;DHT22;2585;48.696;10.066;2023-01-19T01:02:33;-4.50;89.50
5134;DHT22;2585;48.696;10.066;2023-01-19T01:05:00;-4.60;89.30
5134;DHT22;2585;48.696;10.066;2023-01-19T01:07:29;-4.70;88.70
5134;DHT22;2585;48.696;10.066;2023-01-19T01:09:56;-4.70;88.10
5134;DHT22;2585;48.696;10.066;2023-01-19T01:12:23;-4.80;88.20
5134;DHT22;2585;48.696;10.066;2023-01-19T01:14:50;-4.90;88.20
5134;DHT22;2585;48.696;10.066;2023-01-19T01:17:17;-4.90;88.20
5134;DHT22;2585;48.696;10.066;2023-01-19T01:19:50;-4.90;88.80
5134;DHT22;2585;48.696;10.066;2023-01-19T01:22:17;-5.00;88.60
5134;DHT22;2585;48.696;10.066;2023-01-19T01:24:44;-5.10;88.40
5134;DHT22;2585;48.696;10.066;2023-01-19T01:27:11;-5.20;89.10
5134;DHT22;2585;48.696;10.066;2023-01-19T01:29:38;-5.20;89.80
5134;DHT22;2585;48.696;10.066;2023-01-19T01:32:07;-5.20;90.30
5134;DHT22;2585;48.696;10.066;2023-01-19T01:34:33;-5.30;90.50
5134;DHT22;2585;48.696;10.066;2023-01-19T01:37:00;-5.30;90.70
5134;DHT22;2585;48.696;10.066;2023-01-19T01:39:28;-5.30;90.70
5134;DHT22;2585;48.696;10.066;2023-01-19T01:41:58;-5.30;91.00
5134;DHT22;2585;48.696;10.066;2023-01-19T01:49:56;-5.40;91.00
5134;DHT22;2585;48.696;10.066;2023-01-19T01:52:28;-5.50;91.00
5134;DHT22;2585;48.696;10.066;2023-01-19T01:54:58;-5.50;91.10
5134;DHT22;2585;48.696;10.066;2023-01-19T01:57:26;-5.50;91.30
5134;DHT22;2585;48.696;10.066;2023-01-19T01:59:54;-5.50;91.30
5134;DHT22;2585;48.696;10.066;2023-01-19T02:02:25;-5.50;91.40
5134;DHT22;2585;48.696;10.066;2023-01-19T02:05:37;-5.60;91.40
5134;DHT22;2585;48.696;10.066;2023-01-19T02:08:10;-5.60;91.40
5134;DHT22;2585;48.696;10.066;2023-01-19T02:10:57;-5.70;91.50
5134;DHT22;2585;48.696;10.066;2023-01-19T02:13:43;-5.80;91.40
5134;DHT22;2585;48.696;10.066;2023-01-19T02:16:13;-5.80;91.50
5134;DHT22;2585;48.696;10.066;2023-01-19T02:18:41;-5.80;91.70
5134;DHT22;2585;48.696;10.066;2023-01-19T02:23:45;-5.90;91.70
5134;DHT22;2585;48.696;10.066;2023-01-19T02:29:06;-6.00;91.60
5134;DHT22;2585;48.696;10.066;2023-01-19T02:31:35;-6.10;91.60
5134;DHT22;2585;48.696;10.066;2023-01-19T02:34:03;-6.10;91.70
5134;DHT22;2585;48.696;10.066;2023-01-19T02:36:47;-6.10;91.70
5134;DHT22;2585;48.696;10.066;2023-01-19T02:39:19;-6.10;91.80
5134;DHT22;2585;48.696;10.066;2023-01-19T02:41:52;-6.20;91.70
5134;DHT22;2585;48.696;10.066;2023-01-19T02:44:22;-6.10;91.90
5134;DHT22;2585;48.696;10.066;2023-01-19T02:46:52;-6.10;92.00
5134;DHT22;2585;48.696;10.066;2023-01-19T02:49:19;-6.10;92.10
5134;DHT22;2585;48.696;10.066;2023-01-19T02:51:46;-6.20;92.10
5134;DHT22;2585;48.696;10.066;2023-01-19T02:54:38;-6.10;92.20
5134;DHT22;2585;48.696;10.066;2023-01-19T02:57:20;-6.10;92.30
5134;DHT22;2585;48.696;10.066;2023-01-19T03:03:03;-6.10;92.30
5134;DHT22;2585;48.696;10.066;2023-01-19T03:06:05;-6.10;92.30
5134;DHT22;2585;48.696;10.066;2023-01-19T03:08:51;-6.20;92.30
5134;DHT22;2585;48.696;10.066;2023-01-19T03:11:22;-6.20;92.30
5134;DHT22;2585;48.696;10.066;2023-01-19T03:13:56;-6.20;92.30
5134;DHT22;2585;48.696;10.066;2023-01-19T03:16:45;-6.30;92.30
5134;DHT22;2585;48.696;10.066;2023-01-19T03:19:27;-6.40;92.20
5134;DHT22;2585;48.696;10.066;2023-01-19T03:21:59;-6.40;92.20
5134;DHT22;2585;48.696;10.066;2023-01-19T03:24:31;-6.40;92.10
5134;DHT22;2585;48.696;10.066;2023-01-19T03:27:09;-6.50;92.10
5134;DHT22;2585;48.696;10.066;2023-01-19T03:29:39;-6.50;92.20
5134;DHT22;2585;48.696;10.066;2023-01-19T03:32:11;-6.60;92.10
5134;DHT22;2585;48.696;10.066;2023-01-19T03:34:41;-6.50;92.20
5134;DHT22;2585;48.696;10.066;2023-01-19T03:37:10;-6.50;92.20
5134;DHT22;2585;48.696;10.066;2023-01-19T03:39:37;-6.60;92.10
5134;DHT22;2585;48.696;10.066;2023-01-19T03:42:05;-6.60;92.10
5134;DHT22;2585;48.696;10.066;2023-01-19T03:44:36;-6.60;92.20
5134;DHT22;2585;48.696;10.066;2023-01-19T03:47:04;-6.50;92.20
5134;DHT22;2585;48.696;10.066;2023-01-19T03:49:35;-6.60;92.20
5134;DHT22;2585;48.696;10.066;2023-01-19T03:52:04;-6.60;92.20
5134;DHT22;2585;48.696;10.066;2023-01-19T03:54:31;-6.70;92.10
5134;DHT22;2585;48.696;10.066;2023-01-19T03:56:58;-6.70;92.00
5134;DHT22;2585;48.696;10.066;2023-01-19T03:59:24;-6.80;92.00
5134;DHT22;2585;48.696;10.066;2023-01-19T04:01:51;-6.90;91.90
5134;DHT22;2585;48.696;10.066;2023-01-19T04:04:18;-6.90;91.90
5134;DHT22;2585;48.696;10.066;2023-01-19T04:06:45;-6.90;91.90
5134;DHT22;2585;48.696;10.066;2023-01-19T04:09:12;-7.00;91.80
5134;DHT22;2585;48.696;10.066;2023-01-19T04:11:43;-7.00;91.80
5134;DHT22;2585;48.696;10.066;2023-01-19T04:14:09;-7.00;91.80
5134;DHT22;2585;48.696;10.066;2023-01-19T04:16:36;-7.00;91.90
5134;DHT22;2585;48.696;10.066;2023-01-19T04:19:03;-7.10;91.80
5134;DHT22;2585;48.696;10.066;2023-01-19T04:21:30;-7.10;91.80
5134;DHT22;2585;48.696;10.066;2023-01-19T04:23:56;-7.10;91.80
5134;DHT22;2585;48.696;10.066;2023-01-19T04:26:24;-7.10;91.70
5134;DHT22;2585;48.696;10.066;2023-01-19T04:28:51;-7.20;91.70
5134;DHT22;2585;48.696;10.066;2023-01-19T04:31:18;-7.20;91.70
5134;DHT22;2585;48.696;10.066;2023-01-19T04:33:45;-7.20;91.70
5134;DHT22;2585;48.696;10.066;2023-01-19T04:36:11;-7.20;91.60
5134;DHT22;2585;48.696;10.066;2023-01-19T04:38:38;-7.30;91.50
5134;DHT22;2585;48.696;10.066;2023-01-19T04:41:05;-7.30;91.40
5134;DHT22;2585;48.696;10.066;2023-01-19T04:43:31;-7.30;91.40
5134;DHT22;2585;48.696;10.066;2023-01-19T04:45:59;-7.40;91.30
5134;DHT22;2585;48.696;10.066;2023-01-19T04:48:26;-7.40;91.20
5134;DHT22;2585;48.696;10.066;2023-01-19T04:50:52;-7.40;91.00
5134;DHT22;2585;48.696;10.066;2023-01-19T04:53:19;-7.50;91.00
5134;DHT22;2585;48.696;10.066;2023-01-19T04:55:46;-7.50;91.00
5134;DHT22;2585;48.696;10.066;2023-01-19T04:58:13;-7.50;91.00
5134;DHT22;2585;48.696;10.066;2023-01-19T05:00:42;-7.50;91.20
5134;DHT22;2585;48.696;10.066;2023-01-19T05:03:08;-7.50;91.30
5134;DHT22;2585;48.696;10.066;2023-01-19T05:05:35;-7.60;91.20
5134;DHT22;2585;48.696;10.066;2023-01-19T05:08:02;-7.60;91.20
5134;DHT22;2585;48.696;10.066;2023-01-19T05:10:29;-7.60;91.10
5134;DHT22;2585;48.696;10.066;2023-01-19T05:12:56;-7.60;91.00
5134;DHT22;2585;48.696;10.066;2023-01-19T05:15:23;-7.70;90.90
5134;DHT22;2585;48.696;10.066;2023-01-19T05:17:49;-7.80;90.70
5134;DHT22;2585;48.696;10.066;2023-01-19T05:20:16;-7.70;90.90
5134;DHT22;2585;48.696;10.066;2023-01-19T05:22:51;-7.70;91.10
5134;DHT22;2585;48.696;10.066;2023-01-19T05:25:18;-7.60;91.20
5134;DHT22;2585;48.696;10.066;2023-01-19T05:27:45;-7.60;91.20
5134;DHT22;2585;48.696;10.066;2023-01-19T05:30:12;-7.70;91.20
5134;DHT22;2585;48.696;10.066;2023-01-19T05:32:39;-7.70;91.10
5134;DHT22;2585;48.696;10.066;2023-01-19T05:35:07;-7.70;91.20
5134;DHT22;2585;48.696;10.066;2023-01-19T05:37:33;-7.80;91.00
5134;DHT22;2585;48.696;10.066;2023-01-19T05:40:00;-7.80;91.10
5134;DHT22;2585;48.696;10.066;2023-01-19T05:42:27;-7.80;91.20
5134;DHT22;2585;48.696;10.066;2023-01-19T05:44:55;-7.80;91.30
5134;DHT22;2585;48.696;10.066;2023-01-19T05:47:22;-7.80;91.40
5134;DHT22;2585;48.696;10.066;2023-01-19T05:49:48;-7.80;91.30
5134;DHT22;2585;48.696;10.066;2023-01-19T05:52:15;-7.90;91.20
5134;DHT22;2585;48.696;10.066;2023-01-19T05:54:42;-7.90;91.10
5134;DHT22;2585;48.696;10.066;2023-01-19T05:57:09;-7.90;91.20
5134;DHT22;2585;48.696;10.066;2023-01-19T05:59:37;-7.90;91.10
5134;DHT22;2585;48.696;10.066;2023-01-19T06:02:04;-8.00;91.00
5134;DHT22;2585;48.696;10.066;2023-01-19T06:04:31;-8.00;90.90
5134;DHT22;2585;48.696;10.066;2023-01-19T06:06:57;-8.00;90.90
5134;DHT22;2585;48.696;10.066;2023-01-19T06:09:24;-8.00;90.90
5134;DHT22;2585;48.696;10.066;2023-01-19T06:11:51;-7.90;91.10
5134;DHT22;2585;48.696;10.066;2023-01-19T06:14:19;-7.90;91.20
5134;DHT22;2585;48.696;10.066;2023-01-19T06:16:46;-7.80;91.30
5134;DHT22;2585;48.696;10.066;2023-01-19T06:19:13;-7.90;91.20
5134;DHT22;2585;48.696;10.066;2023-01-19T06:21:40;-7.90;91.20
5134;DHT22;2585;48.696;10.066;2023-01-19T06:24:08;-7.90;91.20
5134;DHT22;2585;48.696;10.066;2023-01-19T06:26:35;-8.00;91.10
5134;DHT22;2585;48.696;10.066;2023-01-19T06:29:03;-8.10;91.10
5134;DHT22;2585;48.696;10.066;2023-01-19T06:31:29;-8.10;91.00
5134;DHT22;2585;48.696;10.066;2023-01-19T06:33:58;-8.20;90.90
5134;DHT22;2585;48.696;10.066;2023-01-19T06:36:25;-8.20;90.90
5134;DHT22;2585;48.696;10.066;2023-01-19T06:38:52;-8.20;90.90
5134;DHT22;2585;48.696;10.066;2023-01-19T06:41:19;-8.20;91.00
5134;DHT22;2585;48.696;10.066;2023-01-19T06:43:46;-8.20;91.10
5134;DHT22;2585;48.696;10.066;2023-01-19T06:46:13;-8.30;90.90
5134;DHT22;2585;48.696;10.066;2023-01-19T06:48:39;-8.30;90.90
5134;DHT22;2585;48.696;10.066;2023-01-19T06:51:09;-8.30;90.80
5134;DHT22;2585;48.696;10.066;2023-01-19T06:53:38;-8.30;90.70
5134;DHT22;2585;48.696;10.066;2023-01-19T06:56:05;-8.40;90.50
5134;DHT22;2585;48.696;10.066;2023-01-19T06:58:33;-8.30;90.60
5134;DHT22;2585;48.696;10.066;2023-01-19T07:01:04;-8.40;90.50
5134;DHT22;2585;48.696;10.066;2023-01-19T07:03:31;-8.40;90.50
5134;DHT22;2585;48.696;10.066;2023-01-19T07:05:58;-8.30;90.60
5134;DHT22;2585;48.696;10.066;2023-01-19T07:08:28;-8.30;90.70
5134;DHT22;2585;48.696;10.066;2023-01-19T07:11:00;-8.30;90.70
5134;DHT22;2585;48.696;10.066;2023-01-19T07:13:47;-8.20;90.50
5134;DHT22;2585;48.696;10.066;2023-01-19T07:16:17;-8.20;90.60
5134;DHT22;2585;48.696;10.066;2023-01-19T07:18:46;-8.20;90.70
5134;DHT22;2585;48.696;10.066;2023-01-19T07:21:13;-8.20;90.70
5134;DHT22;2585;48.696;10.066;2023-01-19T07:23:41;-8.20;90.70
5134;DHT22;2585;48.696;10.066;2023-01-19T07:26:09;-8.20;90.60
5134;DHT22;2585;48.696;10.066;2023-01-19T07:28:36;-8.20;90.70
5134;DHT22;2585;48.696;10.066;2023-01-19T07:31:02;-8.20;90.80
5134;DHT22;2585;48.696;10.066;2023-01-19T07:33:29;-8.10;91.00
5134;DHT22;2585;48.696;10.066;2023-01-19T07:35:56;-8.00;91.10
5134;DHT22;2585;48.696;10.066;2023-01-19T07:38:23;-8.00;91.10
5134;DHT22;2585;48.696;10.066;2023-01-19T07:40:50;-8.10;91.10
5134;DHT22;2585;48.696;10.066;2023-01-19T07:43:17;-8.20;91.00
5134;DHT22;2585;48.696;10.066;2023-01-19T07:45:44;-8.10;91.10
5134;DHT22;2585;48.696;10.066;2023-01-19T07:48:11;-8.10;91.10
5134;DHT22;2585;48.696;10.066;2023-01-19T07:50:37;-8.10;91.10
5134;DHT22;2585;48.696;10.066;2023-01-19T07:53:08;-8.10;91.10
5134;DHT22;2585;48.696;10.066;2023-01-19T07:55:37;-8.10;91.10
5134;DHT22;2585;48.696;10.066;2023-01-19T07:58:03;-8.00;91.20
5134;DHT22;2585;48.696;10.066;2023-01-19T08:00:34;-8.00;91.20
5134;DHT22;2585;48.696;10.066;2023-01-19T08:03:03;-7.90;91.30
5134;DHT22;2585;48.696;10.066;2023-01-19T08:05:33;-8.00;91.30
5134;DHT22;2585;48.696;10.066;2023-01-19T08:08:00;-7.90;91.30
5134;DHT22;2585;48.696;10.066;2023-01-19T08:10:28;-7.90;91.30
5134;DHT22;2585;48.696;10.066;2023-01-19T08:12:56;-7.80;91.40
5134;DHT22;2585;48.696;10.066;2023-01-19T08:15:23;-7.80;91.50
5134;DHT22;2585;48.696;10.066;2023-01-19T08:18:01;-7.80;91.50
5134;DHT22;2585;48.696;10.066;2023-01-19T08:20:28;-7.80;91.50
5134;DHT22;2585;48.696;10.066;2023-01-19T08:22:55;-7.70;91.50
5134;DHT22;2585;48.696;10.066;2023-01-19T08:25:37;-7.60;91.60
5134;DHT22;2585;48.696;10.066;2023-01-19T08:28:05;-7.60;91.60
5134;DHT22;2585;48.696;10.066;2023-01-19T08:30:32;-7.40;91.80
5134;DHT22;2585;48.696;10.066;2023-01-19T08:32:59;-7.30;91.90
5134;DHT22;2585;48.696;10.066;2023-01-19T08:35:30;-7.20;91.90
5134;DHT22;2585;48.696;10.066;2023-01-19T08:37:57;-7.10;92.00
5134;DHT22;2585;48.696;10.066;2023-01-19T08:40:31;-7.00;92.10
5134;DHT22;2585;48.696;10.066;2023-01-19T08:43:09;-7.00;92.10
5134;DHT22;2585;48.696;10.066;2023-01-19T08:45:38;-6.80;92.10
5134;DHT22;2585;48.696;10.066;2023-01-19T08:48:10;-6.70;92.20
5134;DHT22;2585;48.696;10.066;2023-01-19T08:50:38;-6.60;92.10
5134;DHT22;2585;48.696;10.066;2023-01-19T08:53:05;-6.60;92.10
5134;DHT22;2585;48.696;10.066;2023-01-19T08:55:34;-6.60;92.00
5134;DHT22;2585;48.696;10.066;2023-01-19T08:58:03;-6.60;91.80
5134;DHT22;2585;48.696;10.066;2023-01-19T09:00:31;-6.50;91.70
5134;DHT22;2585;48.696;10.066;2023-01-19T09:03:00;-6.40;91.70
5134;DHT22;2585;48.696;10.066;2023-01-19T09:05:31;-6.30;91.60
5134;DHT22;2585;48.696;10.066;2023-01-19T09:08:02;-6.20;91.60
5134;DHT22;2585;48.696;10.066;2023-01-19T09:10:29;-6.00;91.60
5134;DHT22;2585;48.696;10.066;2023-01-19T09:13:05;-5.90;91.40
5134;DHT22;2585;48.696;10.066;2023-01-19T09:15:33;-5.70;91.40
5134;DHT22;2585;48.696;10.066;2023-01-19T09:18:05;-5.50;91.30
5134;DHT22;2585;48.696;10.066;2023-01-19T09:20:32;-5.60;90.60
5134;DHT22;2585;48.696;10.066;2023-01-19T09:23:01;-5.70;90.10
5134;DHT22;2585;48.696;10.066;2023-01-19T09:25:28;-5.80;89.50
5134;DHT22;2585;48.696;10.066;2023-01-19T09:27:55;-5.70;89.20
5134;DHT22;2585;48.696;10.066;2023-01-19T09:30:22;-5.70;89.40
5134;DHT22;2585;48.696;10.066;2023-01-19T09:32:49;-5.60;90.00
5134;DHT22;2585;48.696;10.066;2023-01-19T09:35:15;-5.50;90.30
5134;DHT22;2585;48.696;10.066;2023-01-19T09:37:46;-5.40;90.50
5134;DHT22;2585;48.696;10.066;2023-01-19T09:40:14;-5.20;90.60
5134;DHT22;2585;48.696;10.066;2023-01-19T09:42:49;-5.10;90.80
5134;DHT22;2585;48.696;10.066;2023-01-19T09:47:57;-4.30;91.30
5134;DHT22;2585;48.696;10.066;2023-01-19T09:50:31;-3.90;91.20
5134;DHT22;2585;48.696;10.066;2023-01-19T09:53:16;-3.90;87.40
5134;DHT22;2585;48.696;10.066;2023-01-19T09:55:44;-3.60;77.60
5134;DHT22;2585;48.696;10.066;2023-01-19T09:58:13;-3.20;72.80
5134;DHT22;2585;48.696;10.066;2023-01-19T10:00:43;-2.80;70.50
5134;DHT22;2585;48.696;10.066;2023-01-19T10:03:14;-2.60;63.00
5134;DHT22;2585;48.696;10.066;2023-01-19T10:05:46;-2.60;53.40
5134;DHT22;2585;48.696;10.066;2023-01-19T10:08:19;-2.50;42.90
5134;DHT22;2585;48.696;10.066;2023-01-19T10:10:52;-2.50;37.60
5134;DHT22;2585;48.696;10.066;2023-01-19T10:13:24;-2.30;37.20
5134;DHT22;2585;48.696;10.066;2023-01-19T10:16:08;-2.20;35.60
5134;DHT22;2585;48.696;10.066;2023-01-19T10:18:48;-2.20;35.20
5134;DHT22;2585;48.696;10.066;2023-01-19T10:21:40;-2.30;28.90
5134;DHT22;2585;48.696;10.066;2023-01-19T10:26:46;-2.20;31.00
5134;DHT22;2585;48.696;10.066;2023-01-19T10:31:49;-2.00;25.40
5134;DHT22;2585;48.696;10.066;2023-01-19T10:34:17;-1.90;24.40
5134;DHT22;2585;48.696;10.066;2023-01-19T10:36:56;-1.80;26.60
5134;DHT22;2585;48.696;10.066;2023-01-19T10:39:24;-1.50;26.70
5134;DHT22;2585;48.696;10.066;2023-01-19T10:41:52;-1.10;26.50
5134;DHT22;2585;48.696;10.066;2023-01-19T10:44:27;-0.80;19.80
5134;DHT22;2585;48.696;10.066;2023-01-19T10:46:56;-0.80;15.10
5134;DHT22;2585;48.696;10.066;2023-01-19T10:51:57;-0.20;9.50
5134;DHT22;2585;48.696;10.066;2023-01-19T10:54:25;0.20;9.50
5134;DHT22;2585;48.696;10.066;2023-01-19T10:56:57;0.40;6.80
5134;DHT22;2585;48.696;10.066;2023-01-19T11:04:54;0.40;1.30
5134;DHT22;2585;48.696;10.066;2023-01-19T11:07:31;0.30;1.00
5134;DHT22;2585;48.696;10.066;2023-01-19T11:17:54;0.00;1.00
5134;DHT22;2585;48.696;10.066;2023-01-19T11:20:25;-0.10;1.00
5134;DHT22;2585;48.696;10.066;2023-01-19T11:23:04;-0.10;1.00
5134;DHT22;2585;48.696;10.066;2023-01-19T11:25:33;-0.20;1.00
5134;DHT22;2585;48.696;10.066;2023-01-19T11:28:01;-0.30;1.00
5134;DHT22;2585;48.696;10.066;2023-01-19T11:30:29;-0.30;1.00
5134;DHT22;2585;48.696;10.066;2023-01-19T11:32:56;-0.30;1.00
5134;DHT22;2585;48.696;10.066;2023-01-19T11:35:40;-0.20;1.00
5134;DHT22;2585;48.696;10.066;2023-01-19T11:40:53;-0.10;1.00
5134;DHT22;2585;48.696;10.066;2023-01-19T11:43:22;-0.10;1.00
5134;DHT22;2585;48.696;10.066;2023-01-19T11:45:50;0.10;1.00
5134;DHT22;2585;48.696;10.066;2023-01-19T11:51:55;0.60;1.00
5134;DHT22;2585;48.696;10.066;2023-01-19T11:54:28;1.10;1.00
5134;DHT22;2585;48.696;10.066;2023-01-19T11:56:58;1.20;1.00
5134;DHT22;2585;48.696;10.066;2023-01-19T11:59:25;1.40;1.00
5134;DHT22;2585;48.696;10.066;2023-01-19T12:01:55;1.30;1.00
5134;DHT22;2585;48.696;10.066;2023-01-19T12:04:27;1.20;1.00
5134;DHT22;2585;48.696;10.066;2023-01-19T12:06:56;1.20;1.00
5134;DHT22;2585;48.696;10.066;2023-01-19T12:09:32;1.40;1.00
5134;DHT22;2585;48.696;10.066;2023-01-19T12:12:03;1.50;1.00
5134;DHT22;2585;48.696;10.066;2023-01-19T12:14:53;1.50;1.00
5134;DHT22;2585;48.696;10.066;2023-01-19T12:17:33;1.60;1.00
5134;DHT22;2585;48.696;10.066;2023-01-19T12:20:21;1.50;1.00
5134;DHT22;2585;48.696;10.066;2023-01-19T12:22:59;1.70;1.00
5134;DHT22;2585;48.696;10.066;2023-01-19T12:25:52;1.70;1.00
5134;DHT22;2585;48.696;10.066;2023-01-19T12:28:29;1.80;1.00
5134;DHT22;2585;48.696;10.066;2023-01-19T12:30:58;1.70;1.00
5134;DHT22;2585;48.696;10.066;2023-01-19T12:33:33;1.60;1.00
5134;DHT22;2585;48.696;10.066;2023-01-19T12:41:37;1.20;1.00
5134;DHT22;2585;48.696;10.066;2023-01-19T12:46:56;1.30;1.00
5134;DHT22;2585;48.696;10.066;2023-01-19T12:50:12;1.40;1.00
5134;DHT22;2585;48.696;10.066;2023-01-19T12:57:59;1.00;1.00
5134;DHT22;2585;48.696;10.066;2023-01-19T13:11:11;1.00;1.00
5134;DHT22;2585;48.696;10.066;2023-01-19T13:21:46;0.70;1.00
5134;DHT22;2585;48.696;10.066;2023-01-19T13:24:21;0.70;1.00
5134;DHT22;2585;48.696;10.066;2023-01-19T13:29:38;0.70;1.00
5134;DHT22;2585;48.696;10.066;2023-01-19T13:32:14;0.60;1.00
5134;DHT22;2585;48.696;10.066;2023-01-19T13:35:01;0.50;1.00
5134;DHT22;2585;48.696;10.066;2023-01-19T13:37:37;0.50;1.00
5134;DHT22;2585;48.696;10.066;2023-01-19T13:40:05;0.60;1.00
5134;DHT22;2585;48.696;10.066;2023-01-19T13:42:35;0.50;1.00
5134;DHT22;2585;48.696;10.066;2023-01-19T13:47:54;0.50;1.00
5134;DHT22;2585;48.696;10.066;2023-01-19T13:50:28;0.40;1.00
5134;DHT22;2585;48.696;10.066;2023-01-19T13:52:56;0.40;1.00
5134;DHT22;2585;48.696;10.066;2023-01-19T13:55:26;0.40;1.00
5134;DHT22;2585;48.696;10.066;2023-01-19T13:57:53;0.40;1.00
5134;DHT22;2585;48.696;10.066;2023-01-19T14:00:29;0.50;1.00
5134;DHT22;2585;48.696;10.066;2023-01-19T14:03:16;0.50;1.00
5134;DHT22;2585;48.696;10.066;2023-01-19T14:05:44;0.40;1.00
5134;DHT22;2585;48.696;10.066;2023-01-19T14:08:13;0.40;1.00
5134;DHT22;2585;48.696;10.066;2023-01-19T14:13:16;0.40;1.00
5134;DHT22;2585;48.696;10.066;2023-01-19T14:15:44;0.50;1.00
5134;DHT22;2585;48.696;10.066;2023-01-19T14:26:42;0.40;1.00
5134;DHT22;2585;48.696;10.066;2023-01-19T14:29:17;0.40;1.00
5134;DHT22;2585;48.696;10.066;2023-01-19T14:32:22;0.40;1.00
5134;DHT22;2585;48.696;10.066;2023-01-19T14:37:34;0.30;1.00
5134;DHT22;2585;48.696;10.066;2023-01-19T14:42:57;0.50;1.00
5134;DHT22;2585;48.696;10.066;2023-01-19T14:45:38;0.40;1.00
5134;DHT22;2585;48.696;10.066;2023-01-19T14:48:18;0.40;1.00
5134;DHT22;2585;48.696;10.066;2023-01-19T14:50:46;0.40;1.00
5134;DHT22;2585;48.696;10.066;2023-01-19T14:53:36;0.30;1.00
5134;DHT22;2585;48.696;10.066;2023-01-19T14:56:05;0.40;1.00
5134;DHT22;2585;48.696;10.066;2023-01-19T14:58:33;0.30;1.00
5134;DHT22;2585;48.696;10.066;2023-01-19T15:01:00;0.20;1.00
5134;DHT22;2585;48.696;10.066;2023-01-19T15:03:28;0.10;1.00
5134;DHT22;2585;48.696;10.066;2023-01-19T15:06:15;0.00;1.00
5134;DHT22;2585;48.696;10.066;2023-01-19T15:08:43;0.00;1.00
5134;DHT22;2585;48.696;10.066;2023-01-19T15:11:26;0.00;1.00
5134;DHT22;2585;48.696;10.066;2023-01-19T15:13:54;-0.10;1.00
5134;DHT22;2585;48.696;10.066;2023-01-19T15:16:22;-0.10;1.00
5134;DHT22;2585;48.696;10.066;2023-01-19T15:18:49;-0.20;1.00
5134;DHT22;2585;48.696;10.066;2023-01-19T15:21:20;-0.20;1.00
5134;DHT22;2585;48.696;10.066;2023-01-19T15:23:49;-0.20;1.00
5134;DHT22;2585;48.696;10.066;2023-01-19T15:26:18;-0.20;1.00
5134;DHT22;2585;48.696;10.066;2023-01-19T15:28:46;-0.30;1.00
5134;DHT22;2585;48.696;10.066;2023-01-19T15:31:21;-0.40;1.00
5134;DHT22;2585;48.696;10.066;2023-01-19T15:33:49;-0.30;1.00
5134;DHT22;2585;48.696;10.066;2023-01-19T15:36:18;-0.40;1.00
5134;DHT22;2585;48.696;10.066;2023-01-19T15:38:46;-0.30;1.00
5134;DHT22;2585;48.696;10.066;2023-01-19T15:41:26;-0.40;1.00
5134;DHT22;2585;48.696;10.066;2023-01-19T15:43:53;-0.40;1.00
5134;DHT22;2585;48.696;10.066;2023-01-19T15:46:21;-0.50;1.00
5134;DHT22;2585;48.696;10.066;2023-01-19T15:48:48;-0.40;1.00
5134;DHT22;2585;48.696;10.066;2023-01-19T15:51:20;-0.50;1.00
5134;DHT22;2585;48.696;10.066;2023-01-19T15:53:48;-0.50;1.00
5134;DHT22;2585;48.696;10.066;2023-01-19T15:56:18;-0.60;1.00
5134;DHT22;2585;48.696;10.066;2023-01-19T15:58:46;-0.60;1.00
5134;DHT22;2585;48.696;10.066;2023-01-19T16:01:21;-0.60;1.00
5134;DHT22;2585;48.696;10.066;2023-01-19T16:03:49;-0.60;1.00
5134;DHT22;2585;48.696;10.066;2023-01-19T16:06:16;-0.60;1.00
5134;DHT22;2585;48.696;10.066;2023-01-19T16:08:43;-0.70;1.00
5134;DHT22;2585;48.696;10.066;2023-01-19T16:11:13;-0.70;1.00
5134;DHT22;2585;48.696;10.066;2023-01-19T16:13:43;-0.70;1.00
5134;DHT22;2585;48.696;10.066;2023-01-19T16:16:17;-0.80;1.00
5134;DHT22;2585;48.696;10.066;2023-01-19T16:18:44;-0.70;1.00
5134;DHT22;2585;48.696;10.066;2023-01-19T16:21:11;-0.80;1.00
5134;DHT22;2585;48.696;10.066;2023-01-19T16:23:38;-0.80;1.00
5134;DHT22;2585;48.696;10.066;2023-01-19T16:26:20;-0.80;1.70
5134;DHT22;2585;48.696;10.066;2023-01-19T16:28:48;-0.80;1.70
5134;DHT22;2585;48.696;10.066;2023-01-19T16:31:14;-0.90;1.00
5134;DHT22;2585;48.696;10.066;2023-01-19T16:33:43;-0.90;1.40
5134;DHT22;2585;48.696;10.066;2023-01-19T16:36:38;-0.90;2.70
5134;DHT22;2585;48.696;10.066;2023-01-19T16:39:11;-1.00;3.50
5134;DHT22;2585;48.696;10.066;2023-01-19T16:41:38;-1.00;2.90
5134;DHT22;2585;48.696;10.066;2023-01-19T16:44:06;-1.10;3.50
5134;DHT22;2585;48.696;10.066;2023-01-19T16:46:36;-1.10;3.60
5134;DHT22;2585;48.696;10.066;2023-01-19T16:49:05;-1.10;3.80
5134;DHT22;2585;48.696;10.066;2023-01-19T16:51:32;-1.10;5.10
5134;DHT22;2585;48.696;10.066;2023-01-19T16:53:59;-1.10;6.20
5134;DHT22;2585;48.696;10.066;2023-01-19T16:56:26;-1.20;5.10
5134;DHT22;2585;48.696;10.066;2023-01-19T16:58:54;-1.20;5.30
5134;DHT22;2585;48.696;10.066;2023-01-19T17:01:22;-1.20;4.90
5134;DHT22;2585;48.696;10.066;2023-01-19T17:03:50;-1.20;5.50
5134;DHT22;2585;48.696;10.066;2023-01-19T17:06:18;-1.20;6.00
5134;DHT22;2585;48.696;10.066;2023-01-19T17:08:49;-1.20;7.50
5134;DHT22;2585;48.696;10.066;2023-01-19T17:11:21;-1.20;9.10
5134;DHT22;2585;48.696;10.066;2023-01-19T17:14:11;-1.20;8.60
5134;DHT22;2585;48.696;10.066;2023-01-19T17:16:38;-1.30;8.00
5134;DHT22;2585;48.696;10.066;2023-01-19T17:19:06;-1.30;8.70
5134;DHT22;2585;48.696;10.066;2023-01-19T17:21:34;-1.30;10.00
5134;DHT22;2585;48.696;10.066;2023-01-19T17:24:01;-1.40;8.50
5134;DHT22;2585;48.696;10.066;2023-01-19T17:26:28;-1.30;8.60
5134;DHT22;2585;48.696;10.066;2023-01-19T17:29:00;-1.40;10.00
5134;DHT22;2585;48.696;10.066;2023-01-19T17:31:28;-1.40;11.00
5134;DHT22;2585;48.696;10.066;2023-01-19T17:33:56;-1.40;11.90
5134;DHT22;2585;48.696;10.066;2023-01-19T17:36:24;-1.40;12.10
5134;DHT22;2585;48.696;10.066;2023-01-19T17:38:55;-1.40;11.40
5134;DHT22;2585;48.696;10.066;2023-01-19T17:41:27;-1.50;11.10
5134;DHT22;2585;48.696;10.066;2023-01-19T17:43:55;-1.50;12.00
5134;DHT22;2585;48.696;10.066;2023-01-19T17:46:24;-1.60;13.50
5134;DHT22;2585;48.696;10.066;2023-01-19T17:48:56;-1.50;14.70
5134;DHT22;2585;48.696;10.066;2023-01-19T17:51:24;-1.50;16.10
5134;DHT22;2585;48.696;10.066;2023-01-19T17:53:52;-1.60;16.60